This is the latest recevied weather packets stored in our database for station/object I5EKX-13. If no packets are shown the sender has not sent any weather packets the latest 10 day(s).
| Time | Temp. | Humidity | Pressure | Rain* | Wind** | Luminosity | Snow |
|---|---|---|---|---|---|---|---|
| 1777567810 | 19.44° C | 36% | 1014.2 hPa | - | - | - | - |
| 1777566605 | 20° C | 37% | 1014.3 hPa | - | - | - | - |
| 1777565401 | 20° C | 37% | 1014.3 hPa | - | - | - | - |
| 1777564197 | 20.56° C | 36% | 1014.2 hPa | - | - | - | - |
| 1777562992 | 20.56° C | 36% | 1014.2 hPa | - | - | - | - |
| 1777561788 | 21.11° C | 35% | 1014.1 hPa | - | - | - | - |
| 1777560584 | 21.67° C | 34% | 1014.1 hPa | - | - | - | - |
| 1777559380 | 22.22° C | 35% | 1014.1 hPa | - | - | - | - |
| 1777557781 | 22.22° C | 36% | 1014.2 hPa | - | - | - | - |
| 1777556578 | 22.78° C | 36% | 1014.1 hPa | - | - | - | - |
| 1777555373 | 23.33° C | 36% | 1014.3 hPa | - | - | - | - |
| 1777552966 | 23.33° C | 35% | 1014.4 hPa | - | - | - | - |
| 1777551762 | 23.89° C | 37% | 1014.5 hPa | - | - | - | - |
| 1777550558 | 23.33° C | 36% | 1014.8 hPa | - | - | - | - |
| 1777549354 | 23.33° C | 38% | 1014.9 hPa | - | - | - | - |
| 1777548150 | 23.89° C | 37% | 1014.9 hPa | - | - | - | - |
| 1777546946 | 22.78° C | 40% | 1014.8 hPa | - | - | - | - |
| 1777545742 | 22.22° C | 39% | 1014.7 hPa | - | - | - | - |
| 1777544538 | 22.22° C | 38% | 1014.6 hPa | - | - | - | - |
| 1777543334 | 21.11° C | 39% | 1014.7 hPa | - | - | - | - |
| 1777542130 | 21.11° C | 40% | 1014.6 hPa | - | - | - | - |
| 1777540927 | 22.22° C | 41% | 1014.4 hPa | - | - | - | - |
| 1777539722 | 22.22° C | 42% | 1014.3 hPa | - | - | - | - |
| 1777538519 | 18.89° C | 48% | 1014.2 hPa | - | - | - | - |
| 1777537315 | 20° C | 44% | 1014.1 hPa | - | - | - | - |
* Rain since midnight (hover to see other rain measurements)
** Current wind speed in m/s (hover to see current wind gust speed)